createdAt,value
2022-12-06T00:00:27.466Z,11.80
2022-12-06T00:01:08.678Z,12.10
2022-12-06T00:01:41.671Z,9.60
2022-12-06T00:02:13.543Z,9.93
2022-12-06T00:02:45.106Z,10.02
2022-12-06T00:03:16.619Z,10.82
2022-12-06T00:03:51.494Z,9.88
2022-12-06T00:04:22.930Z,9.32
2022-12-06T00:04:54.350Z,11.15
2022-12-06T00:05:25.770Z,10.93
2022-12-06T00:06:07.497Z,10.45
2022-12-06T00:06:40.630Z,10.25
2022-12-06T00:07:12.105Z,10.32
2022-12-06T00:07:43.640Z,11.00
2022-12-06T00:08:15.082Z,10.93
2022-12-06T00:08:46.977Z,11.75
2022-12-06T00:09:23.184Z,9.80
2022-12-06T00:09:54.621Z,8.82
2022-12-06T00:10:26.026Z,12.90
2022-12-06T00:11:08.207Z,9.35
2022-12-06T00:11:39.672Z,11.00
2022-12-06T00:12:11.113Z,10.30
2022-12-06T00:12:42.494Z,11.75
2022-12-06T00:13:13.906Z,9.80
2022-12-06T00:13:45.592Z,9.57
2022-12-06T00:14:17.427Z,12.10
2022-12-06T00:14:48.813Z,9.45
2022-12-06T00:15:20.199Z,12.10
2022-12-06T00:15:51.637Z,10.10
2022-12-06T00:16:23.794Z,11.48
2022-12-06T00:16:55.403Z,9.77
2022-12-06T00:17:27.231Z,10.88
2022-12-06T00:17:58.710Z,10.77
2022-12-06T00:18:30.572Z,11.70
2022-12-06T00:19:02.160Z,10.75
2022-12-06T00:19:33.601Z,10.65
2022-12-06T00:20:05.682Z,10.63
2022-12-06T00:20:37.132Z,10.77
2022-12-06T00:21:10.412Z,10.00
2022-12-06T00:21:42.033Z,9.75
2022-12-06T00:22:13.503Z,10.25
2022-12-06T00:22:45.041Z,10.48
2022-12-06T00:23:16.468Z,11.15
2022-12-06T00:23:49.542Z,11.68
2022-12-06T00:24:21.764Z,9.65
2022-12-06T00:24:53.291Z,10.43
2022-12-06T00:25:24.730Z,12.20
2022-12-06T00:25:56.055Z,11.15
2022-12-06T00:26:28.434Z,10.25
2022-12-06T00:26:59.874Z,10.98
2022-12-06T00:27:31.294Z,10.43
2022-12-06T00:28:02.859Z,11.23
2022-12-06T00:28:34.722Z,12.15
2022-12-06T00:29:06.756Z,10.43
2022-12-06T00:29:38.271Z,10.32
2022-12-06T00:30:09.998Z,13.00
2022-12-06T00:30:41.498Z,11.15
2022-12-06T00:31:17.177Z,10.80
2022-12-06T00:31:49.481Z,9.88
2022-12-06T00:32:21.035Z,10.30
2022-12-06T00:32:52.580Z,10.85
2022-12-06T00:33:26.390Z,11.63
2022-12-06T00:33:58.096Z,11.32
2022-12-06T00:34:29.604Z,10.80
2022-12-06T00:35:01.048Z,9.18
2022-12-06T00:35:32.527Z,10.85
2022-12-06T00:36:09.817Z,11.90
2022-12-06T00:36:41.957Z,10.13
2022-12-06T00:37:13.446Z,8.98
2022-12-06T00:37:44.933Z,13.02
2022-12-06T00:38:16.370Z,10.73
2022-12-06T00:38:48.025Z,11.10
2022-12-06T00:39:19.696Z,9.75
2022-12-06T00:39:51.115Z,11.55
2022-12-06T00:40:22.633Z,12.50
2022-12-06T00:41:05.070Z,10.98
2022-12-06T00:41:36.565Z,11.27
2022-12-06T00:42:08.007Z,12.80
2022-12-06T00:42:39.371Z,9.95
2022-12-06T00:43:10.782Z,10.95
2022-12-06T00:43:42.694Z,11.32
2022-12-06T00:44:14.114Z,10.88
2022-12-06T00:44:45.621Z,10.85
2022-12-06T00:45:17.062Z,10.35
2022-12-06T00:45:48.634Z,10.88
2022-12-06T00:46:22.142Z,13.07
2022-12-06T00:46:53.651Z,10.77
2022-12-06T00:47:25.106Z,9.90
2022-12-06T00:47:56.593Z,11.10
2022-12-06T00:48:28.337Z,12.05
2022-12-06T00:49:01.123Z,11.18
2022-12-06T00:49:32.629Z,11.65
2022-12-06T00:50:04.445Z,11.63
2022-12-06T00:50:35.819Z,10.80
2022-12-06T00:51:07.433Z,10.77
2022-12-06T00:51:39.465Z,12.27
2022-12-06T00:52:10.855Z,11.50
2022-12-06T00:52:42.316Z,11.13
2022-12-06T00:53:13.726Z,11.35
2022-12-06T00:53:45.922Z,12.60
2022-12-06T00:54:17.364Z,10.25
2022-12-06T00:54:48.782Z,9.98
2022-12-06T00:55:20.232Z,10.52
2022-12-06T00:55:51.673Z,11.90
2022-12-06T00:56:23.481Z,10.82
2022-12-06T00:56:54.962Z,11.55
2022-12-06T00:57:26.552Z,11.75
2022-12-06T00:57:57.931Z,12.93
2022-12-06T00:58:29.469Z,11.65
2022-12-06T00:59:00.966Z,11.05
2022-12-06T00:59:32.396Z,11.45
2022-12-06T01:00:04.278Z,10.87
2022-12-06T01:00:35.755Z,11.10
2022-12-06T01:01:15.085Z,10.18
2022-12-06T01:01:49.029Z,10.77
2022-12-06T01:02:20.492Z,9.30
2022-12-06T01:02:51.902Z,10.35
2022-12-06T01:03:23.625Z,12.75
2022-12-06T01:03:56.819Z,12.38
2022-12-06T01:04:28.296Z,9.35
2022-12-06T01:04:59.796Z,10.95
2022-12-06T01:05:31.633Z,13.80
2022-12-06T01:06:04.891Z,10.43
2022-12-06T01:06:37.219Z,11.30
2022-12-06T01:07:08.710Z,10.98
2022-12-06T01:07:40.285Z,11.05
2022-12-06T01:08:12.068Z,11.98
2022-12-06T01:08:43.737Z,11.88
2022-12-06T01:09:15.265Z,10.90
2022-12-06T01:09:46.655Z,10.95
2022-12-06T01:10:18.190Z,11.75
2022-12-06T01:10:51.391Z,11.15
2022-12-06T01:11:23.230Z,9.55
2022-12-06T01:11:54.647Z,11.65
2022-12-06T01:12:26.198Z,11.93
2022-12-06T01:12:57.644Z,12.75
2022-12-06T01:13:29.221Z,9.88
2022-12-06T01:14:00.750Z,13.02
2022-12-06T01:14:32.121Z,11.10
2022-12-06T01:15:03.688Z,12.38
2022-12-06T01:15:38.113Z,12.85
2022-12-06T01:16:11.340Z,11.25
2022-12-06T01:16:42.977Z,10.00
2022-12-06T01:17:14.453Z,10.73
2022-12-06T01:17:45.948Z,12.18
2022-12-06T01:18:17.405Z,10.77
2022-12-06T01:18:51.582Z,10.52
2022-12-06T01:19:26.053Z,12.07
2022-12-06T01:19:57.779Z,11.38
2022-12-06T01:20:29.472Z,10.70
2022-12-06T01:21:07.723Z,10.68
2022-12-06T01:21:39.202Z,12.30
2022-12-06T01:22:10.647Z,12.50
2022-12-06T01:22:42.041Z,11.30
2022-12-06T01:23:13.967Z,10.35
2022-12-06T01:23:45.693Z,11.48
2022-12-06T01:24:17.173Z,11.55
2022-12-06T01:24:48.568Z,12.65
2022-12-06T01:25:20.026Z,12.93
2022-12-06T01:25:52.222Z,10.07
2022-12-06T01:26:25.215Z,12.35
2022-12-06T01:26:56.625Z,10.15
2022-12-06T01:27:28.050Z,11.52
2022-12-06T01:28:00.061Z,10.93
2022-12-06T01:28:31.536Z,9.93
2022-12-06T01:29:03.051Z,11.68
2022-12-06T01:29:34.528Z,11.32
2022-12-06T01:30:06.299Z,11.35
2022-12-06T01:30:39.544Z,10.75
2022-12-06T01:31:11.587Z,13.05
2022-12-06T01:31:43.086Z,12.20
2022-12-06T01:32:14.615Z,12.82
2022-12-06T01:32:46.081Z,11.73
2022-12-06T01:33:17.561Z,11.45
2022-12-06T01:33:49.076Z,10.55
2022-12-06T01:34:20.466Z,12.05
2022-12-06T01:34:51.866Z,11.90
2022-12-06T01:35:23.299Z,13.45
2022-12-06T01:35:54.728Z,12.68
2022-12-06T01:36:26.587Z,10.65
2022-12-06T01:36:58.058Z,12.55
2022-12-06T01:37:29.584Z,10.88
2022-12-06T01:38:05.999Z,11.07
2022-12-06T01:38:37.709Z,10.00
2022-12-06T01:39:09.182Z,11.02
2022-12-06T01:39:40.556Z,12.10
2022-12-06T01:40:12.322Z,10.38
2022-12-06T01:40:45.255Z,11.23
2022-12-06T01:41:19.493Z,10.80
2022-12-06T01:41:50.977Z,10.77
2022-12-06T01:42:22.493Z,10.32
2022-12-06T01:42:53.917Z,9.48
2022-12-06T01:43:43.935Z,10.75
2022-12-06T01:44:33.910Z,10.48
2022-12-06T01:45:05.597Z,10.35
2022-12-06T01:45:37.491Z,11.70
2022-12-06T01:46:12.163Z,11.18
2022-12-06T01:46:44.827Z,11.77
2022-12-06T01:47:22.027Z,12.77
2022-12-06T01:47:53.650Z,11.63
2022-12-06T01:48:26.320Z,11.95
2022-12-06T01:49:08.528Z,10.07
2022-12-06T01:49:41.330Z,10.93
2022-12-06T01:50:13.001Z,11.32
2022-12-06T01:50:44.444Z,11.00
2022-12-06T01:51:16.161Z,11.10
2022-12-06T01:51:59.092Z,12.40
2022-12-06T01:52:46.451Z,9.75
2022-12-06T01:53:21.381Z,11.27
2022-12-06T01:53:58.183Z,11.05
2022-12-06T01:54:29.670Z,10.52
2022-12-06T01:55:01.504Z,11.88
2022-12-06T01:55:35.227Z,13.90
2022-12-06T01:56:07.466Z,10.57
2022-12-06T01:56:40.006Z,11.38
2022-12-06T01:57:13.288Z,12.55
2022-12-06T01:57:45.092Z,10.85
2022-12-06T01:58:18.335Z,12.60
2022-12-06T01:58:51.934Z,11.23
2022-12-06T01:59:24.032Z,11.55
2022-12-06T01:59:55.512Z,11.98
2022-12-06T02:00:26.967Z,10.73
2022-12-06T02:00:58.504Z,10.02
2022-12-06T02:01:30.212Z,11.50
2022-12-06T02:02:02.106Z,10.13
2022-12-06T02:02:33.688Z,11.20
2022-12-06T02:03:09.117Z,11.80
2022-12-06T02:03:40.738Z,11.45
2022-12-06T02:04:12.485Z,13.73
2022-12-06T02:04:44.400Z,11.43
2022-12-06T02:05:16.750Z,11.83
2022-12-06T02:05:48.549Z,12.27
2022-12-06T02:06:20.213Z,12.65
2022-12-06T02:06:52.659Z,13.52
2022-12-06T02:07:24.659Z,12.52
2022-12-06T02:07:56.878Z,11.55
2022-12-06T02:08:28.713Z,11.25
2022-12-06T02:09:01.236Z,11.52
2022-12-06T02:09:33.587Z,10.87
2022-12-06T02:10:05.663Z,11.45
2022-12-06T02:10:37.525Z,11.82
2022-12-06T02:11:09.028Z,12.07
2022-12-06T02:11:40.456Z,12.13
2022-12-06T02:12:13.060Z,12.68
2022-12-06T02:12:44.561Z,11.23
2022-12-06T02:13:16.107Z,12.68
2022-12-06T02:13:47.736Z,11.20
2022-12-06T02:14:20.830Z,11.60
2022-12-06T02:14:53.639Z,13.05
2022-12-06T02:15:29.418Z,12.68
2022-12-06T02:16:16.199Z,11.07
2022-12-06T02:17:01.580Z,11.80
2022-12-06T02:17:48.430Z,12.15
2022-12-06T02:18:25.034Z,11.55
2022-12-06T02:19:08.458Z,11.02
2022-12-06T02:19:41.956Z,12.75
2022-12-06T02:20:29.118Z,12.27
2022-12-06T02:21:06.193Z,14.50
2022-12-06T02:21:57.784Z,10.30
2022-12-06T02:22:29.223Z,11.20
2022-12-06T02:23:09.817Z,9.75
2022-12-06T02:23:50.199Z,11.60
2022-12-06T02:24:36.540Z,10.80
2022-12-06T02:25:23.972Z,11.75
2022-12-06T02:25:55.403Z,11.15
2022-12-06T02:26:29.568Z,11.68
2022-12-06T02:27:21.082Z,12.43
2022-12-06T02:28:12.675Z,11.73
2022-12-06T02:28:44.023Z,11.07
2022-12-06T02:29:30.289Z,11.35
2022-12-06T02:30:07.878Z,11.60
2022-12-06T02:31:05.703Z,11.43
2022-12-06T02:31:40.489Z,11.82
2022-12-06T02:32:21.250Z,11.15
2022-12-06T02:32:55.724Z,14.05
2022-12-06T02:33:39.143Z,14.17
2022-12-06T02:34:16.308Z,13.43
2022-12-06T02:34:53.725Z,12.87
2022-12-06T02:35:25.153Z,10.52
2022-12-06T02:36:06.430Z,11.85
2022-12-06T02:36:44.016Z,12.68
2022-12-06T02:37:41.611Z,12.80
2022-12-06T02:38:20.785Z,12.70
2022-12-06T02:38:53.955Z,13.50
2022-12-06T02:39:37.123Z,11.85
2022-12-06T02:40:12.046Z,11.35
2022-12-06T02:40:48.814Z,11.73
2022-12-06T02:41:38.218Z,13.02
2022-12-06T02:42:13.238Z,12.63
2022-12-06T02:42:51.703Z,12.20
2022-12-06T02:43:28.205Z,12.57
2022-12-06T02:44:02.393Z,12.35
2022-12-06T02:44:36.831Z,11.98
2022-12-06T02:45:13.254Z,12.55
2022-12-06T02:45:55.777Z,12.25
2022-12-06T02:46:29.745Z,12.73
2022-12-06T02:47:01.658Z,12.73
2022-12-06T02:47:35.188Z,13.02
2022-12-06T02:48:08.620Z,11.23
2022-12-06T02:48:40.831Z,13.27
2022-12-06T02:49:13.394Z,13.18
2022-12-06T02:49:46.301Z,11.60
2022-12-06T02:50:19.246Z,13.63
2022-12-06T02:50:57.085Z,13.80
2022-12-06T02:51:30.047Z,11.85
2022-12-06T02:52:02.615Z,14.48
2022-12-06T02:52:36.809Z,13.85
2022-12-06T02:53:10.869Z,15.88
2022-12-06T02:53:44.774Z,13.02
2022-12-06T02:54:17.000Z,12.45
2022-12-06T02:54:49.519Z,11.55
2022-12-06T02:55:22.242Z,12.98
2022-12-06T02:55:53.890Z,11.43
2022-12-06T02:56:26.196Z,13.80
2022-12-06T02:56:57.680Z,13.65
2022-12-06T02:57:55.625Z,14.77
2022-12-06T02:58:27.031Z,13.73
2022-12-06T02:58:58.559Z,14.37
2022-12-06T02:59:29.891Z,13.98
2022-12-06T03:00:01.914Z,14.27
2022-12-06T03:00:44.089Z,13.32
2022-12-06T03:01:18.143Z,14.30
2022-12-06T03:01:52.798Z,14.65
2022-12-06T03:02:24.385Z,12.93
2022-12-06T03:03:00.587Z,14.38
2022-12-06T03:03:50.921Z,14.90
2022-12-06T03:04:45.456Z,14.18
2022-12-06T03:05:22.701Z,14.50
2022-12-06T03:06:02.990Z,15.45
2022-12-06T03:06:34.359Z,15.95
2022-12-06T03:07:28.213Z,14.60
2022-12-06T03:08:01.365Z,11.55
2022-12-06T03:08:41.903Z,13.95
2022-12-06T03:09:32.023Z,13.60
2022-12-06T03:10:03.777Z,13.48
2022-12-06T03:10:46.764Z,13.27
2022-12-06T03:11:18.644Z,15.90
2022-12-06T03:12:10.285Z,14.05
2022-12-06T03:13:00.100Z,13.60
2022-12-06T03:13:38.598Z,14.18
2022-12-06T03:14:14.992Z,15.48
2022-12-06T03:14:52.410Z,12.20
2022-12-06T03:15:29.610Z,12.83
2022-12-06T03:16:04.989Z,12.35
2022-12-06T03:16:42.660Z,14.73
2022-12-06T03:17:22.316Z,13.80
2022-12-06T03:17:57.323Z,13.32
2022-12-06T03:18:38.322Z,12.27
2022-12-06T03:19:18.569Z,12.77
2022-12-06T03:19:53.900Z,13.73
2022-12-06T03:20:48.587Z,12.98
2022-12-06T03:21:23.606Z,13.80
2022-12-06T03:22:00.531Z,12.68
2022-12-06T03:22:39.406Z,10.98
2022-12-06T03:23:16.056Z,11.80
2022-12-06T03:23:49.242Z,13.23
2022-12-06T03:24:21.786Z,11.25
2022-12-06T03:24:53.549Z,12.05
2022-12-06T03:25:25.569Z,13.43
2022-12-06T03:25:58.515Z,11.88
2022-12-06T03:26:31.227Z,14.07
2022-12-06T03:27:14.136Z,12.23
2022-12-06T03:27:46.740Z,12.60
2022-12-06T03:28:20.388Z,13.63
2022-12-06T03:28:52.994Z,10.93
2022-12-06T03:29:26.270Z,12.27
2022-12-06T03:29:59.444Z,13.75
2022-12-06T03:30:32.483Z,12.68
2022-12-06T03:31:07.793Z,13.07
2022-12-06T03:31:40.977Z,12.93
2022-12-06T03:32:14.263Z,12.17
2022-12-06T03:32:47.743Z,13.77
2022-12-06T03:33:21.083Z,13.10
2022-12-06T03:33:58.157Z,11.13
2022-12-06T03:34:34.851Z,12.25
2022-12-06T03:35:08.302Z,12.48
2022-12-06T03:35:40.710Z,13.02
2022-12-06T03:36:12.862Z,12.65
2022-12-06T03:36:45.475Z,13.02
2022-12-06T03:37:20.353Z,15.02
2022-12-06T03:37:55.269Z,11.77
2022-12-06T03:38:46.889Z,11.27
2022-12-06T03:39:36.736Z,11.52
2022-12-06T03:40:12.473Z,12.18
2022-12-06T03:40:45.214Z,15.32
2022-12-06T03:41:19.246Z,11.63
2022-12-06T03:41:54.075Z,11.60
2022-12-06T03:42:25.603Z,12.55
2022-12-06T03:42:57.664Z,13.52
2022-12-06T03:43:29.265Z,12.00
2022-12-06T03:44:00.782Z,12.65
2022-12-06T03:44:33.293Z,12.13
2022-12-06T03:45:05.356Z,12.85
2022-12-06T03:45:43.260Z,13.95
2022-12-06T03:46:17.509Z,11.93
2022-12-06T03:46:50.047Z,13.43
2022-12-06T03:47:26.288Z,11.52
2022-12-06T03:48:05.010Z,14.25
2022-12-06T03:48:40.714Z,13.25
2022-12-06T03:49:14.579Z,14.10
2022-12-06T03:49:54.429Z,11.45
2022-12-06T03:50:38.587Z,10.05
2022-12-06T03:51:18.952Z,10.60
2022-12-06T03:51:50.771Z,14.57
2022-12-06T03:52:23.176Z,12.73
2022-12-06T03:52:54.769Z,11.25
2022-12-06T03:53:26.356Z,12.88
2022-12-06T03:53:59.362Z,11.32
2022-12-06T03:54:30.886Z,12.98
2022-12-06T03:55:02.348Z,12.45
2022-12-06T03:55:33.836Z,11.02
2022-12-06T03:56:05.425Z,11.63
2022-12-06T03:56:37.744Z,10.55
2022-12-06T03:57:10.052Z,11.15
2022-12-06T03:57:41.484Z,12.55
2022-12-06T03:58:13.333Z,12.82
2022-12-06T03:58:44.758Z,10.23
2022-12-06T03:59:16.610Z,10.35
2022-12-06T03:59:48.029Z,12.17
2022-12-06T04:00:19.944Z,12.55
2022-12-06T04:00:51.329Z,10.43
2022-12-06T04:01:23.173Z,11.45
2022-12-06T04:01:54.896Z,11.68
2022-12-06T04:02:26.356Z,10.40
2022-12-06T04:02:57.801Z,11.00
2022-12-06T04:03:29.361Z,9.32
2022-12-06T04:04:00.872Z,10.30
2022-12-06T04:04:32.419Z,11.90
2022-12-06T04:05:06.737Z,12.55
2022-12-06T04:05:38.133Z,10.52
2022-12-06T04:06:09.774Z,8.77
2022-12-06T04:06:41.290Z,12.15
2022-12-06T04:07:12.727Z,11.73
2022-12-06T04:07:44.211Z,11.05
2022-12-06T04:08:15.718Z,12.07
2022-12-06T04:08:47.278Z,10.25
2022-12-06T04:09:18.694Z,11.60
2022-12-06T04:09:50.060Z,12.05
2022-12-06T04:10:21.456Z,12.75
2022-12-06T04:10:52.886Z,13.55
2022-12-06T04:11:24.329Z,8.98
2022-12-06T04:11:55.921Z,10.43
2022-12-06T04:12:27.368Z,11.98
2022-12-06T04:12:58.844Z,12.07
2022-12-06T04:13:30.374Z,9.90
2022-12-06T04:14:01.714Z,11.60
2022-12-06T04:14:33.225Z,12.05
2022-12-06T04:15:05.672Z,9.63
2022-12-06T04:15:38.162Z,11.47
2022-12-06T04:16:10.234Z,11.35
2022-12-06T04:16:41.872Z,11.13
2022-12-06T04:17:13.320Z,13.73
2022-12-06T04:17:44.735Z,12.75
2022-12-06T04:18:16.451Z,11.02
2022-12-06T04:18:47.967Z,13.73
2022-12-06T04:19:19.415Z,11.23
2022-12-06T04:19:52.193Z,11.68
2022-12-06T04:20:24.140Z,11.77
2022-12-06T04:20:57.732Z,12.38
2022-12-06T04:21:29.160Z,13.38
2022-12-06T04:22:00.562Z,13.60
2022-12-06T04:22:31.999Z,11.65
2022-12-06T04:23:03.468Z,11.63
2022-12-06T04:23:39.107Z,11.63
2022-12-06T04:24:10.503Z,13.27
2022-12-06T04:24:41.930Z,11.90
2022-12-06T04:25:13.426Z,11.43
2022-12-06T04:25:45.075Z,12.23
2022-12-06T04:26:21.054Z,12.35
2022-12-06T04:26:52.443Z,10.50
2022-12-06T04:27:23.821Z,12.10
2022-12-06T04:27:55.259Z,11.82
2022-12-06T04:28:26.696Z,11.38
2022-12-06T04:28:58.190Z,12.30
2022-12-06T04:29:29.575Z,12.02
2022-12-06T04:30:01.293Z,10.95
2022-12-06T04:30:32.961Z,14.15
2022-12-06T04:31:04.507Z,13.20
2022-12-06T04:31:36.787Z,12.35
2022-12-06T04:32:08.272Z,11.60
2022-12-06T04:32:39.720Z,12.77
2022-12-06T04:33:11.321Z,11.75
2022-12-06T04:33:42.824Z,11.30
2022-12-06T04:34:14.664Z,12.55
2022-12-06T04:34:46.053Z,12.68
2022-12-06T04:35:17.473Z,11.68
2022-12-06T04:35:48.938Z,12.93
2022-12-06T04:36:20.464Z,14.95
2022-12-06T04:36:52.059Z,10.80
2022-12-06T04:37:26.323Z,13.50
2022-12-06T04:37:58.523Z,12.52
2022-12-06T04:38:30.110Z,11.15
2022-12-06T04:39:01.836Z,15.15
2022-12-06T04:39:33.584Z,12.95
2022-12-06T04:40:05.407Z,10.93
2022-12-06T04:40:36.876Z,12.45
2022-12-06T04:41:08.837Z,11.27
2022-12-06T04:41:40.247Z,12.18
2022-12-06T04:42:12.115Z,12.65
2022-12-06T04:42:43.612Z,13.30
2022-12-06T04:43:15.054Z,13.55
2022-12-06T04:43:46.422Z,12.07
2022-12-06T04:44:17.812Z,13.23
2022-12-06T04:44:49.250Z,12.30
2022-12-06T04:45:20.643Z,12.38
2022-12-06T04:45:52.070Z,12.88
2022-12-06T04:46:23.586Z,12.82
2022-12-06T04:46:55.102Z,12.18
2022-12-06T04:47:27.045Z,12.70
2022-12-06T04:47:58.482Z,13.93
2022-12-06T04:48:29.878Z,13.57
2022-12-06T04:49:01.354Z,11.23
2022-12-06T04:49:33.008Z,13.75
2022-12-06T04:50:04.618Z,12.55
2022-12-06T04:50:36.084Z,12.07
2022-12-06T04:51:07.537Z,13.07
2022-12-06T04:51:39.024Z,13.65
2022-12-06T04:52:10.852Z,11.63
2022-12-06T04:52:42.295Z,12.27
2022-12-06T04:53:13.788Z,13.25
2022-12-06T04:53:45.224Z,13.30
2022-12-06T04:54:16.670Z,11.55
2022-12-06T04:54:48.079Z,13.40
2022-12-06T04:55:19.428Z,12.13
2022-12-06T04:55:50.806Z,13.98
2022-12-06T04:56:22.196Z,12.32
2022-12-06T04:56:53.625Z,12.52
2022-12-06T04:57:25.070Z,12.73
2022-12-06T04:57:56.491Z,11.60
2022-12-06T04:58:27.853Z,12.45
2022-12-06T04:58:59.278Z,13.35
2022-12-06T04:59:30.714Z,13.48
2022-12-06T05:00:02.391Z,12.45
2022-12-06T05:00:34.208Z,12.43
2022-12-06T05:01:05.821Z,13.13
2022-12-06T05:01:37.273Z,13.35
2022-12-06T05:02:13.042Z,15.35
2022-12-06T05:02:44.716Z,13.60
2022-12-06T05:03:16.370Z,14.25
2022-12-06T05:03:47.848Z,15.32
2022-12-06T05:04:19.764Z,13.30
2022-12-06T05:04:51.220Z,12.70
2022-12-06T05:05:22.673Z,12.60
2022-12-06T05:05:54.077Z,13.25
2022-12-06T05:06:25.658Z,13.70
2022-12-06T05:06:57.054Z,16.17
2022-12-06T05:07:28.502Z,14.68
2022-12-06T05:08:00.131Z,14.88
2022-12-06T05:08:31.629Z,13.98
2022-12-06T05:09:04.452Z,15.13
2022-12-06T05:09:35.969Z,14.40
2022-12-06T05:10:07.776Z,15.43
2022-12-06T05:10:39.452Z,16.15
2022-12-06T05:11:10.886Z,17.00
2022-12-06T05:11:42.379Z,13.85
2022-12-06T05:12:13.889Z,14.75
2022-12-06T05:12:45.404Z,15.23
2022-12-06T05:13:17.506Z,12.50
2022-12-06T05:13:48.923Z,13.98
2022-12-06T05:14:20.394Z,14.05
2022-12-06T05:14:51.879Z,14.55
2022-12-06T05:15:26.635Z,15.77
2022-12-06T05:16:01.832Z,14.32
2022-12-06T05:16:33.384Z,14.70
2022-12-06T05:17:04.845Z,14.43
2022-12-06T05:17:36.275Z,16.48
2022-12-06T05:18:07.737Z,13.40
2022-12-06T05:18:39.289Z,15.70
2022-12-06T05:19:12.366Z,15.73
2022-12-06T05:19:43.768Z,14.43
2022-12-06T05:20:15.278Z,13.82
2022-12-06T05:20:46.711Z,14.75
2022-12-06T05:21:21.122Z,15.68
2022-12-06T05:21:52.621Z,16.05
2022-12-06T05:22:24.177Z,15.40
2022-12-06T05:22:55.609Z,14.65
2022-12-06T05:23:27.050Z,15.45
2022-12-06T05:23:58.615Z,14.52
2022-12-06T05:24:29.989Z,20.38
2022-12-06T05:25:01.442Z,15.77
2022-12-06T05:25:32.901Z,14.90
2022-12-06T05:26:06.235Z,16.13
2022-12-06T05:26:37.656Z,17.48
2022-12-06T05:27:09.168Z,16.63
2022-12-06T05:27:40.650Z,17.48
2022-12-06T05:28:12.157Z,16.90
2022-12-06T05:28:43.779Z,14.38
2022-12-06T05:29:15.317Z,16.15
2022-12-06T05:29:46.708Z,16.77
2022-12-06T05:30:18.175Z,16.58
2022-12-06T05:30:49.591Z,16.77
2022-12-06T05:31:21.595Z,18.40
2022-12-06T05:31:53.063Z,14.30
2022-12-06T05:32:24.663Z,18.08
2022-12-06T05:32:57.137Z,16.27
2022-12-06T05:33:28.768Z,14.60
2022-12-06T05:34:00.249Z,17.00
2022-12-06T05:34:31.641Z,16.08
2022-12-06T05:35:03.102Z,19.70
2022-12-06T05:35:34.559Z,16.25
2022-12-06T05:36:09.601Z,16.55
2022-12-06T05:36:41.193Z,17.65
2022-12-06T05:37:12.675Z,16.92
2022-12-06T05:37:44.233Z,17.35
2022-12-06T05:38:15.849Z,15.98
2022-12-06T05:38:51.361Z,16.52
2022-12-06T05:39:23.280Z,18.33
2022-12-06T05:39:54.729Z,18.73
2022-12-06T05:40:26.151Z,16.13
2022-12-06T05:40:57.537Z,15.98
2022-12-06T05:41:28.985Z,18.38
2022-12-06T05:42:00.414Z,17.38
2022-12-06T05:42:31.843Z,24.08
2022-12-06T05:43:03.290Z,19.15
2022-12-06T05:43:34.735Z,19.02
2022-12-06T05:44:06.361Z,16.90
2022-12-06T05:44:37.870Z,19.10
2022-12-06T05:45:09.858Z,17.58
2022-12-06T05:45:41.388Z,18.70
2022-12-06T05:46:12.926Z,18.55
2022-12-06T05:46:44.499Z,17.35
2022-12-06T05:47:15.966Z,19.27
2022-12-06T05:47:47.389Z,17.73
2022-12-06T05:48:19.064Z,17.90
2022-12-06T05:48:50.644Z,18.95
2022-12-06T05:49:22.127Z,19.40
2022-12-06T05:49:53.560Z,20.60
2022-12-06T05:50:24.958Z,19.05
2022-12-06T05:50:56.432Z,19.10
2022-12-06T05:51:27.939Z,17.67
2022-12-06T05:52:03.797Z,19.15
2022-12-06T05:52:35.701Z,24.88
2022-12-06T05:53:07.148Z,23.70
2022-12-06T05:53:38.742Z,23.40
2022-12-06T05:54:10.117Z,19.00
2022-12-06T05:54:41.562Z,18.83
2022-12-06T05:55:13.003Z,21.38
2022-12-06T05:55:44.362Z,21.38
2022-12-06T05:56:15.795Z,21.77
2022-12-06T05:56:49.321Z,21.05
2022-12-06T05:57:20.792Z,17.95
2022-12-06T05:57:52.340Z,20.92
2022-12-06T05:58:23.762Z,18.08
2022-12-06T05:58:55.221Z,22.05
2022-12-06T05:59:26.651Z,21.50
2022-12-06T05:59:58.411Z,22.25
2022-12-06T06:00:30.283Z,21.20
2022-12-06T06:01:01.885Z,20.88
2022-12-06T06:01:33.498Z,21.43
2022-12-06T06:02:05.439Z,20.02
2022-12-06T06:02:36.947Z,18.10
2022-12-06T06:03:10.097Z,20.33
2022-12-06T06:03:47.134Z,19.60
2022-12-06T06:04:19.319Z,19.27
2022-12-06T06:04:50.906Z,19.67
2022-12-06T06:05:22.490Z,22.42
2022-12-06T06:05:56.700Z,21.13
2022-12-06T06:06:30.578Z,19.38
2022-12-06T06:07:02.026Z,20.52
2022-12-06T06:07:33.600Z,21.55
2022-12-06T06:08:05.400Z,23.75
2022-12-06T06:08:39.891Z,23.65
2022-12-06T06:09:11.519Z,24.52
2022-12-06T06:09:42.852Z,19.97
2022-12-06T06:10:14.903Z,19.30
2022-12-06T06:10:46.361Z,20.05
2022-12-06T06:11:17.863Z,18.67
2022-12-06T06:11:49.267Z,22.10
2022-12-06T06:12:20.700Z,21.38
2022-12-06T06:12:52.651Z,20.55
2022-12-06T06:13:24.147Z,23.02
2022-12-06T06:13:55.610Z,21.40
2022-12-06T06:14:27.064Z,17.47
2022-12-06T06:14:58.501Z,21.50
2022-12-06T06:15:29.957Z,22.20
2022-12-06T06:16:01.428Z,24.92
2022-12-06T06:16:33.128Z,23.80
2022-12-06T06:17:04.619Z,22.02
2022-12-06T06:17:36.170Z,22.52
2022-12-06T06:18:07.594Z,21.42
2022-12-06T06:18:38.974Z,21.42
2022-12-06T06:19:10.468Z,20.73
2022-12-06T06:19:41.964Z,28.75
2022-12-06T06:20:13.394Z,36.08
2022-12-06T06:20:48.475Z,28.77
2022-12-06T06:21:20.063Z,26.77
2022-12-06T06:21:51.547Z,21.73
2022-12-06T06:22:22.978Z,20.48
2022-12-06T06:22:54.369Z,21.90
2022-12-06T06:23:26.515Z,22.73
2022-12-06T06:23:58.025Z,24.50
2022-12-06T06:24:34.886Z,23.95
2022-12-06T06:25:06.721Z,20.40
2022-12-06T06:25:39.608Z,21.95
2022-12-06T06:26:11.698Z,20.88
2022-12-06T06:26:43.283Z,20.67
2022-12-06T06:27:14.679Z,22.63
2022-12-06T06:27:46.112Z,24.08
2022-12-06T06:28:17.955Z,21.10
2022-12-06T06:28:49.354Z,19.75
2022-12-06T06:29:21.862Z,23.70
2022-12-06T06:29:53.302Z,21.60
2022-12-06T06:30:24.878Z,24.02
2022-12-06T06:31:01.900Z,20.65
2022-12-06T06:31:33.500Z,24.20
2022-12-06T06:32:05.050Z,21.08
2022-12-06T06:32:36.686Z,22.67
2022-12-06T06:33:08.107Z,22.65
2022-12-06T06:33:39.649Z,20.65
2022-12-06T06:34:11.107Z,21.20
2022-12-06T06:34:42.523Z,19.90
2022-12-06T06:35:14.062Z,21.92
2022-12-06T06:35:45.557Z,21.20
2022-12-06T06:36:17.045Z,20.38
2022-12-06T06:36:48.476Z,23.42
2022-12-06T06:37:19.910Z,20.75
2022-12-06T06:37:51.391Z,22.58
2022-12-06T06:38:22.992Z,19.98
2022-12-06T06:38:54.448Z,19.30
2022-12-06T06:39:25.915Z,22.52
2022-12-06T06:39:57.461Z,21.40
2022-12-06T06:40:29.253Z,22.77
2022-12-06T06:41:04.326Z,20.65
2022-12-06T06:41:35.660Z,20.17
2022-12-06T06:42:07.043Z,22.88
2022-12-06T06:42:38.452Z,20.17
2022-12-06T06:43:09.919Z,21.85
2022-12-06T06:43:41.843Z,20.83
2022-12-06T06:44:13.625Z,23.38
2022-12-06T06:44:45.247Z,21.05
2022-12-06T06:45:16.659Z,22.92
2022-12-06T06:45:55.451Z,21.20
2022-12-06T06:46:27.057Z,21.75
2022-12-06T06:46:58.546Z,21.63
2022-12-06T06:47:29.987Z,22.27
2022-12-06T06:48:01.421Z,22.02
2022-12-06T06:48:34.073Z,21.92
2022-12-06T06:49:05.492Z,20.98
2022-12-06T06:49:37.019Z,20.63
2022-12-06T06:50:08.663Z,21.17
2022-12-06T06:50:40.087Z,23.60
2022-12-06T06:51:12.618Z,24.87
2022-12-06T06:51:44.541Z,22.13
2022-12-06T06:52:16.187Z,22.70
2022-12-06T06:52:47.622Z,22.83
2022-12-06T06:53:19.120Z,21.95
2022-12-06T06:53:50.591Z,20.55
2022-12-06T06:54:22.061Z,23.77
2022-12-06T06:54:53.470Z,19.83
2022-12-06T06:55:27.625Z,21.80
2022-12-06T06:55:59.006Z,20.00
2022-12-06T06:56:30.447Z,21.55
2022-12-06T06:57:01.788Z,22.08
2022-12-06T06:57:33.324Z,24.58
2022-12-06T06:58:05.048Z,21.10
2022-12-06T06:58:36.963Z,20.58
2022-12-06T06:59:08.447Z,20.15
2022-12-06T06:59:39.825Z,21.73
2022-12-06T07:00:11.643Z,19.42
2022-12-06T07:00:43.398Z,20.48
2022-12-06T07:01:16.907Z,22.25
2022-12-06T07:01:48.495Z,23.13
2022-12-06T07:02:20.039Z,24.45
2022-12-06T07:02:51.669Z,22.70
2022-12-06T07:03:23.367Z,23.48
2022-12-06T07:03:54.869Z,23.50
2022-12-06T07:04:26.305Z,23.58
2022-12-06T07:04:57.690Z,26.13
2022-12-06T07:05:30.057Z,21.98
2022-12-06T07:06:03.133Z,24.17
2022-12-06T07:06:34.612Z,22.13
2022-12-06T07:07:06.171Z,21.48
2022-12-06T07:07:37.732Z,22.27
2022-12-06T07:08:09.801Z,19.33